Lanark Village, Florida
Current Conditions -  °F | °C
As of 7:53 AM on Friday 28 Nov 2014 (Local Time) from KAAF Reporting Station
Clear Clear  
Wind Chill: 35°   Ceiling: Unl
Heat Index: 41°   Visibility: 10mi
Dew Point: 32°   Wind: 9mph
Humidity: 70%   Direction: 20°NNE
Pressure: 30.4"   Gusts: NA
Location:  29.88°N, 84.6°W
Report Text: KAAF 281253Z AUTO 02008KT 10SM CLR 05/00 A3040 RMK AO2 SLP294 T00500000 TSNO
Loading
Personal Weather Stations






























Interactive Weather Map New forecast layout! Learn more

10-Day Weather Forecast

Advertisements
Track Severe Weather on mobile